sensor_id;sensor_type;location;lat;lon;timestamp;P1;durP1;ratioP1;P2;durP2;ratioP2
18200;SDS011;9226;47.858;9.594;2024-03-23T00:55:28;5.87;;;3.30;;
18200;SDS011;9226;47.858;9.594;2024-03-23T00:57:53;6.83;;;3.23;;
18200;SDS011;9226;47.858;9.594;2024-03-23T01:00:19;9.00;;;3.80;;
18200;SDS011;9226;47.858;9.594;2024-03-23T01:02:44;5.93;;;3.33;;
18200;SDS011;9226;47.858;9.594;2024-03-23T01:05:09;7.33;;;3.47;;
18200;SDS011;9226;47.858;9.594;2024-03-23T01:07:35;6.97;;;3.40;;
18200;SDS011;9226;47.858;9.594;2024-03-23T01:10:00;8.17;;;3.70;;
18200;SDS011;9226;47.858;9.594;2024-03-23T01:12:25;7.80;;;3.80;;
18200;SDS011;9226;47.858;9.594;2024-03-23T01:14:51;6.83;;;3.60;;
18200;SDS011;9226;47.858;9.594;2024-03-23T01:17:16;9.03;;;3.90;;
18200;SDS011;9226;47.858;9.594;2024-03-23T01:19:41;5.87;;;3.73;;
18200;SDS011;9226;47.858;9.594;2024-03-23T01:22:07;6.33;;;3.70;;
18200;SDS011;9226;47.858;9.594;2024-03-23T01:24:34;5.77;;;3.70;;
18200;SDS011;9226;47.858;9.594;2024-03-23T01:27:00;8.53;;;3.80;;
18200;SDS011;9226;47.858;9.594;2024-03-23T01:29:25;6.77;;;3.53;;
18200;SDS011;9226;47.858;9.594;2024-03-23T01:31:50;6.60;;;3.73;;
18200;SDS011;9226;47.858;9.594;2024-03-23T01:34:16;6.47;;;3.67;;
18200;SDS011;9226;47.858;9.594;2024-03-23T01:36:41;5.57;;;3.43;;
18200;SDS011;9226;47.858;9.594;2024-03-23T01:39:07;7.43;;;3.80;;
18200;SDS011;9226;47.858;9.594;2024-03-23T01:41:34;7.40;;;3.30;;
18200;SDS011;9226;47.858;9.594;2024-03-23T01:44:00;9.53;;;3.57;;
18200;SDS011;9226;47.858;9.594;2024-03-23T01:46:30;6.43;;;3.40;;
18200;SDS011;9226;47.858;9.594;2024-03-23T01:48:55;5.83;;;3.50;;
18200;SDS011;9226;47.858;9.594;2024-03-23T01:51:21;5.77;;;3.57;;
18200;SDS011;9226;47.858;9.594;2024-03-23T01:53:46;8.13;;;3.73;;
18200;SDS011;9226;47.858;9.594;2024-03-23T01:56:11;9.67;;;3.43;;
18200;SDS011;9226;47.858;9.594;2024-03-23T01:58:38;5.23;;;3.00;;
18200;SDS011;9226;47.858;9.594;2024-03-23T02:01:03;5.80;;;3.27;;
18200;SDS011;9226;47.858;9.594;2024-03-23T02:03:29;8.90;;;3.20;;
18200;SDS011;9226;47.858;9.594;2024-03-23T02:05:54;5.70;;;3.27;;
18200;SDS011;9226;47.858;9.594;2024-03-23T02:08:22;8.30;;;3.27;;
18200;SDS011;9226;47.858;9.594;2024-03-23T02:10:49;4.80;;;3.17;;
18200;SDS011;9226;47.858;9.594;2024-03-23T02:13:15;7.40;;;3.27;;
18200;SDS011;9226;47.858;9.594;2024-03-23T02:15:41;8.10;;;2.90;;
18200;SDS011;9226;47.858;9.594;2024-03-23T02:18:07;5.70;;;3.27;;
18200;SDS011;9226;47.858;9.594;2024-03-23T02:20:33;7.47;;;3.00;;
18200;SDS011;9226;47.858;9.594;2024-03-23T02:22:59;4.13;;;2.73;;
18200;SDS011;9226;47.858;9.594;2024-03-23T02:25:24;4.50;;;2.83;;
18200;SDS011;9226;47.858;9.594;2024-03-23T02:27:49;4.33;;;2.90;;
18200;SDS011;9226;47.858;9.594;2024-03-23T02:30:15;6.90;;;3.07;;
18200;SDS011;9226;47.858;9.594;2024-03-23T02:32:40;6.50;;;3.07;;
18200;SDS011;9226;47.858;9.594;2024-03-23T02:35:05;7.20;;;3.03;;
18200;SDS011;9226;47.858;9.594;2024-03-23T02:37:31;5.30;;;3.23;;
18200;SDS011;9226;47.858;9.594;2024-03-23T02:39:57;7.37;;;2.87;;
18200;SDS011;9226;47.858;9.594;2024-03-23T02:42:23;12.27;;;3.80;;
18200;SDS011;9226;47.858;9.594;2024-03-23T02:44:48;4.47;;;2.70;;
18200;SDS011;9226;47.858;9.594;2024-03-23T02:47:14;5.83;;;2.93;;
18200;SDS011;9226;47.858;9.594;2024-03-23T02:49:39;4.50;;;2.60;;
18200;SDS011;9226;47.858;9.594;2024-03-23T02:52:04;6.60;;;3.53;;
18200;SDS011;9226;47.858;9.594;2024-03-23T02:54:30;4.43;;;2.70;;
18200;SDS011;9226;47.858;9.594;2024-03-23T02:56:56;6.47;;;3.20;;
18200;SDS011;9226;47.858;9.594;2024-03-23T02:59:21;9.00;;;3.20;;
18200;SDS011;9226;47.858;9.594;2024-03-23T03:01:46;7.33;;;3.00;;
18200;SDS011;9226;47.858;9.594;2024-03-23T03:04:12;5.63;;;3.10;;
18200;SDS011;9226;47.858;9.594;2024-03-23T03:06:37;4.47;;;2.80;;
18200;SDS011;9226;47.858;9.594;2024-03-23T03:09:03;4.67;;;2.60;;
18200;SDS011;9226;47.858;9.594;2024-03-23T03:11:28;6.00;;;2.70;;
18200;SDS011;9226;47.858;9.594;2024-03-23T03:13:53;5.07;;;2.73;;
18200;SDS011;9226;47.858;9.594;2024-03-23T03:16:19;7.80;;;3.03;;
18200;SDS011;9226;47.858;9.594;2024-03-23T03:18:44;5.23;;;2.60;;
18200;SDS011;9226;47.858;9.594;2024-03-23T03:21:11;4.53;;;2.80;;
18200;SDS011;9226;47.858;9.594;2024-03-23T03:23:37;6.70;;;2.90;;
18200;SDS011;9226;47.858;9.594;2024-03-23T03:26:03;5.03;;;2.97;;
18200;SDS011;9226;47.858;9.594;2024-03-23T03:28:30;8.63;;;3.10;;
18200;SDS011;9226;47.858;9.594;2024-03-23T03:30:57;6.70;;;3.00;;
18200;SDS011;9226;47.858;9.594;2024-03-23T03:33:23;5.50;;;3.27;;
18200;SDS011;9226;47.858;9.594;2024-03-23T03:35:48;3.90;;;2.67;;
18200;SDS011;9226;47.858;9.594;2024-03-23T03:38:14;3.77;;;2.77;;
18200;SDS011;9226;47.858;9.594;2024-03-23T03:40:39;5.93;;;2.73;;
18200;SDS011;9226;47.858;9.594;2024-03-23T03:43:06;5.93;;;2.90;;
18200;SDS011;9226;47.858;9.594;2024-03-23T03:45:31;9.00;;;2.90;;
18200;SDS011;9226;47.858;9.594;2024-03-23T03:47:57;9.00;;;2.90;;
18200;SDS011;9226;47.858;9.594;2024-03-23T03:50:22;4.97;;;2.80;;
18200;SDS011;9226;47.858;9.594;2024-03-23T03:52:48;7.30;;;3.30;;
18200;SDS011;9226;47.858;9.594;2024-03-23T03:55:13;6.17;;;2.80;;
18200;SDS011;9226;47.858;9.594;2024-03-23T03:57:39;4.47;;;2.83;;
18200;SDS011;9226;47.858;9.594;2024-03-23T04:00:05;6.13;;;2.90;;
18200;SDS011;9226;47.858;9.594;2024-03-23T04:02:31;6.23;;;3.10;;
18200;SDS011;9226;47.858;9.594;2024-03-23T04:04:56;5.10;;;2.77;;
18200;SDS011;9226;47.858;9.594;2024-03-23T04:07:22;5.97;;;3.10;;
18200;SDS011;9226;47.858;9.594;2024-03-23T04:09:48;4.23;;;2.70;;
18200;SDS011;9226;47.858;9.594;2024-03-23T04:12:14;5.17;;;2.80;;
18200;SDS011;9226;47.858;9.594;2024-03-23T04:14:40;5.33;;;2.87;;
18200;SDS011;9226;47.858;9.594;2024-03-23T04:17:05;6.47;;;2.87;;
18200;SDS011;9226;47.858;9.594;2024-03-23T04:19:30;4.77;;;2.60;;
18200;SDS011;9226;47.858;9.594;2024-03-23T04:21:56;4.50;;;2.60;;
18200;SDS011;9226;47.858;9.594;2024-03-23T04:24:21;4.70;;;2.87;;
18200;SDS011;9226;47.858;9.594;2024-03-23T04:26:47;4.70;;;2.60;;
18200;SDS011;9226;47.858;9.594;2024-03-23T04:29:12;6.20;;;2.50;;
18200;SDS011;9226;47.858;9.594;2024-03-23T04:31:38;3.90;;;2.50;;
18200;SDS011;9226;47.858;9.594;2024-03-23T04:34:03;3.40;;;2.40;;
18200;SDS011;9226;47.858;9.594;2024-03-23T04:36:29;4.37;;;2.77;;
18200;SDS011;9226;47.858;9.594;2024-03-23T04:38:55;4.83;;;2.80;;
18200;SDS011;9226;47.858;9.594;2024-03-23T04:41:21;7.17;;;2.90;;
18200;SDS011;9226;47.858;9.594;2024-03-23T04:43:47;6.77;;;2.57;;
18200;SDS011;9226;47.858;9.594;2024-03-23T04:46:12;5.20;;;2.83;;
18200;SDS011;9226;47.858;9.594;2024-03-23T04:48:37;6.13;;;2.77;;
18200;SDS011;9226;47.858;9.594;2024-03-23T04:51:03;5.73;;;2.63;;
18200;SDS011;9226;47.858;9.594;2024-03-23T04:53:29;5.00;;;2.70;;
18200;SDS011;9226;47.858;9.594;2024-03-23T04:55:55;6.30;;;2.80;;
18200;SDS011;9226;47.858;9.594;2024-03-23T04:58:22;4.27;;;2.60;;
18200;SDS011;9226;47.858;9.594;2024-03-23T05:00:54;4.87;;;2.73;;
18200;SDS011;9226;47.858;9.594;2024-03-23T05:03:20;5.33;;;3.00;;
18200;SDS011;9226;47.858;9.594;2024-03-23T05:05:46;5.07;;;3.10;;
18200;SDS011;9226;47.858;9.594;2024-03-23T05:08:12;6.30;;;3.40;;
18200;SDS011;9226;47.858;9.594;2024-03-23T05:10:37;4.70;;;3.00;;
18200;SDS011;9226;47.858;9.594;2024-03-23T05:13:03;6.10;;;2.93;;
18200;SDS011;9226;47.858;9.594;2024-03-23T05:15:28;8.93;;;3.10;;
18200;SDS011;9226;47.858;9.594;2024-03-23T05:17:55;5.30;;;3.30;;
18200;SDS011;9226;47.858;9.594;2024-03-23T05:20:20;12.10;;;3.10;;
18200;SDS011;9226;47.858;9.594;2024-03-23T05:22:46;8.20;;;3.80;;
18200;SDS011;9226;47.858;9.594;2024-03-23T05:25:11;6.80;;;3.33;;
18200;SDS011;9226;47.858;9.594;2024-03-23T05:27:37;5.00;;;2.70;;
18200;SDS011;9226;47.858;9.594;2024-03-23T05:30:02;10.83;;;2.80;;
18200;SDS011;9226;47.858;9.594;2024-03-23T05:32:29;6.47;;;2.70;;
18200;SDS011;9226;47.858;9.594;2024-03-23T05:34:54;5.07;;;2.80;;
18200;SDS011;9226;47.858;9.594;2024-03-23T05:37:23;7.50;;;2.60;;
18200;SDS011;9226;47.858;9.594;2024-03-23T05:39:48;9.53;;;2.90;;
18200;SDS011;9226;47.858;9.594;2024-03-23T05:42:15;5.80;;;3.00;;
18200;SDS011;9226;47.858;9.594;2024-03-23T05:44:42;6.47;;;2.60;;
18200;SDS011;9226;47.858;9.594;2024-03-23T05:47:09;4.40;;;2.63;;
18200;SDS011;9226;47.858;9.594;2024-03-23T05:49:34;5.43;;;3.10;;
18200;SDS011;9226;47.858;9.594;2024-03-23T05:51:59;7.20;;;3.37;;
18200;SDS011;9226;47.858;9.594;2024-03-23T05:54:27;8.83;;;3.53;;
18200;SDS011;9226;47.858;9.594;2024-03-23T05:56:54;6.83;;;3.40;;
18200;SDS011;9226;47.858;9.594;2024-03-23T05:59:20;7.37;;;3.33;;
18200;SDS011;9226;47.858;9.594;2024-03-23T06:01:46;7.43;;;3.07;;
18200;SDS011;9226;47.858;9.594;2024-03-23T06:04:12;5.57;;;3.30;;
18200;SDS011;9226;47.858;9.594;2024-03-23T06:06:38;6.27;;;3.27;;
18200;SDS011;9226;47.858;9.594;2024-03-23T06:09:04;6.73;;;3.20;;
18200;SDS011;9226;47.858;9.594;2024-03-23T06:11:29;15.87;;;3.67;;
18200;SDS011;9226;47.858;9.594;2024-03-23T06:13:55;7.77;;;3.37;;
18200;SDS011;9226;47.858;9.594;2024-03-23T06:16:21;5.00;;;3.40;;
18200;SDS011;9226;47.858;9.594;2024-03-23T06:18:49;7.40;;;3.03;;
18200;SDS011;9226;47.858;9.594;2024-03-23T06:21:15;5.07;;;3.10;;
18200;SDS011;9226;47.858;9.594;2024-03-23T06:23:44;4.97;;;2.87;;
18200;SDS011;9226;47.858;9.594;2024-03-23T06:26:16;5.30;;;3.00;;
18200;SDS011;9226;47.858;9.594;2024-03-23T06:28:42;6.47;;;2.80;;
18200;SDS011;9226;47.858;9.594;2024-03-23T06:31:09;4.20;;;2.73;;
18200;SDS011;9226;47.858;9.594;2024-03-23T06:33:35;5.37;;;2.40;;
18200;SDS011;9226;47.858;9.594;2024-03-23T06:36:00;2.97;;;2.13;;
18200;SDS011;9226;47.858;9.594;2024-03-23T06:38:25;9.47;;;3.00;;
18200;SDS011;9226;47.858;9.594;2024-03-23T06:40:51;3.97;;;2.33;;
18200;SDS011;9226;47.858;9.594;2024-03-23T06:43:17;4.57;;;2.53;;
18200;SDS011;9226;47.858;9.594;2024-03-23T06:45:43;5.30;;;3.23;;
18200;SDS011;9226;47.858;9.594;2024-03-23T06:48:08;6.17;;;3.00;;
18200;SDS011;9226;47.858;9.594;2024-03-23T06:50:34;4.63;;;2.23;;
18200;SDS011;9226;47.858;9.594;2024-03-23T06:52:59;8.00;;;2.73;;
18200;SDS011;9226;47.858;9.594;2024-03-23T06:55:26;7.47;;;3.20;;
18200;SDS011;9226;47.858;9.594;2024-03-23T06:57:53;6.20;;;3.20;;
18200;SDS011;9226;47.858;9.594;2024-03-23T07:00:18;4.73;;;2.90;;
18200;SDS011;9226;47.858;9.594;2024-03-23T07:02:44;6.40;;;3.40;;
18200;SDS011;9226;47.858;9.594;2024-03-23T07:05:10;7.47;;;3.43;;
18200;SDS011;9226;47.858;9.594;2024-03-23T07:07:35;6.10;;;3.40;;
18200;SDS011;9226;47.858;9.594;2024-03-23T07:10:01;5.80;;;3.40;;
18200;SDS011;9226;47.858;9.594;2024-03-23T07:12:28;7.43;;;3.53;;
18200;SDS011;9226;47.858;9.594;2024-03-23T07:14:53;8.23;;;3.97;;
18200;SDS011;9226;47.858;9.594;2024-03-23T07:17:18;8.10;;;3.27;;
18200;SDS011;9226;47.858;9.594;2024-03-23T07:19:44;10.63;;;3.60;;
18200;SDS011;9226;47.858;9.594;2024-03-23T07:22:09;5.70;;;3.60;;
18200;SDS011;9226;47.858;9.594;2024-03-23T07:24:35;6.27;;;2.80;;
18200;SDS011;9226;47.858;9.594;2024-03-23T07:27:00;4.30;;;2.80;;
18200;SDS011;9226;47.858;9.594;2024-03-23T07:29:27;6.27;;;3.47;;
18200;SDS011;9226;47.858;9.594;2024-03-23T07:31:52;6.83;;;3.70;;
18200;SDS011;9226;47.858;9.594;2024-03-23T07:34:18;7.03;;;3.23;;
18200;SDS011;9226;47.858;9.594;2024-03-23T07:36:43;6.53;;;3.50;;
18200;SDS011;9226;47.858;9.594;2024-03-23T07:39:08;6.17;;;3.70;;
18200;SDS011;9226;47.858;9.594;2024-03-23T07:41:34;8.00;;;3.43;;
18200;SDS011;9226;47.858;9.594;2024-03-23T07:44:00;6.57;;;3.63;;
18200;SDS011;9226;47.858;9.594;2024-03-23T07:46:25;5.70;;;3.23;;
18200;SDS011;9226;47.858;9.594;2024-03-23T07:48:51;5.70;;;3.23;;
18200;SDS011;9226;47.858;9.594;2024-03-23T07:51:20;5.50;;;3.53;;
18200;SDS011;9226;47.858;9.594;2024-03-23T07:53:47;5.20;;;3.10;;
18200;SDS011;9226;47.858;9.594;2024-03-23T07:56:13;6.77;;;3.47;;
18200;SDS011;9226;47.858;9.594;2024-03-23T07:58:43;7.17;;;3.27;;
18200;SDS011;9226;47.858;9.594;2024-03-23T08:01:12;5.93;;;3.17;;
18200;SDS011;9226;47.858;9.594;2024-03-23T08:03:42;4.90;;;3.10;;
18200;SDS011;9226;47.858;9.594;2024-03-23T08:08:40;6.97;;;2.60;;
18200;SDS011;9226;47.858;9.594;2024-03-23T08:11:06;5.70;;;2.97;;
18200;SDS011;9226;47.858;9.594;2024-03-23T08:13:32;4.70;;;2.40;;
18200;SDS011;9226;47.858;9.594;2024-03-23T08:15:59;3.47;;;2.20;;
18200;SDS011;9226;47.858;9.594;2024-03-23T08:18:25;3.07;;;1.80;;
18200;SDS011;9226;47.858;9.594;2024-03-23T08:21:01;3.80;;;2.00;;
18200;SDS011;9226;47.858;9.594;2024-03-23T08:23:27;3.47;;;1.60;;
18200;SDS011;9226;47.858;9.594;2024-03-23T08:25:57;2.00;;;1.37;;
18200;SDS011;9226;47.858;9.594;2024-03-23T08:28:23;1.90;;;1.10;;
18200;SDS011;9226;47.858;9.594;2024-03-23T08:30:48;1.07;;;0.80;;
18200;SDS011;9226;47.858;9.594;2024-03-23T08:33:14;2.10;;;1.00;;
18200;SDS011;9226;47.858;9.594;2024-03-23T08:35:40;1.30;;;0.83;;
18200;SDS011;9226;47.858;9.594;2024-03-23T08:38:06;3.27;;;1.00;;
18200;SDS011;9226;47.858;9.594;2024-03-23T08:40:31;1.70;;;0.70;;
18200;SDS011;9226;47.858;9.594;2024-03-23T08:42:56;0.87;;;0.60;;
18200;SDS011;9226;47.858;9.594;2024-03-23T08:45:22;0.70;;;0.50;;
18200;SDS011;9226;47.858;9.594;2024-03-23T08:47:47;1.00;;;0.73;;
18200;SDS011;9226;47.858;9.594;2024-03-23T08:50:13;0.90;;;0.60;;
18200;SDS011;9226;47.858;9.594;2024-03-23T08:52:38;0.77;;;0.53;;
18200;SDS011;9226;47.858;9.594;2024-03-23T08:55:03;1.00;;;0.70;;
18200;SDS011;9226;47.858;9.594;2024-03-23T08:57:29;0.50;;;0.50;;
18200;SDS011;9226;47.858;9.594;2024-03-23T08:59:54;0.77;;;0.50;;
18200;SDS011;9226;47.858;9.594;2024-03-23T09:02:20;1.40;;;0.40;;
18200;SDS011;9226;47.858;9.594;2024-03-23T09:04:45;0.67;;;0.40;;
18200;SDS011;9226;47.858;9.594;2024-03-23T09:07:11;0.30;;;0.30;;
18200;SDS011;9226;47.858;9.594;2024-03-23T09:09:38;0.47;;;0.47;;
18200;SDS011;9226;47.858;9.594;2024-03-23T09:12:04;0.37;;;0.37;;
18200;SDS011;9226;47.858;9.594;2024-03-23T09:14:29;0.33;;;0.33;;
18200;SDS011;9226;47.858;9.594;2024-03-23T09:16:55;0.87;;;0.30;;
18200;SDS011;9226;47.858;9.594;2024-03-23T09:19:20;1.57;;;0.40;;
18200;SDS011;9226;47.858;9.594;2024-03-23T09:21:45;0.60;;;0.43;;
18200;SDS011;9226;47.858;9.594;2024-03-23T09:24:11;0.63;;;0.43;;
18200;SDS011;9226;47.858;9.594;2024-03-23T09:26:36;0.40;;;0.40;;
18200;SDS011;9226;47.858;9.594;2024-03-23T09:29:02;0.40;;;0.40;;
18200;SDS011;9226;47.858;9.594;2024-03-23T09:31:27;0.50;;;0.47;;
18200;SDS011;9226;47.858;9.594;2024-03-23T09:33:52;0.50;;;0.33;;
18200;SDS011;9226;47.858;9.594;2024-03-23T09:36:17;0.40;;;0.40;;
18200;SDS011;9226;47.858;9.594;2024-03-23T09:38:43;0.53;;;0.30;;
18200;SDS011;9226;47.858;9.594;2024-03-23T09:41:08;0.30;;;0.30;;
18200;SDS011;9226;47.858;9.594;2024-03-23T09:43:35;0.43;;;0.40;;
18200;SDS011;9226;47.858;9.594;2024-03-23T09:46:01;0.50;;;0.40;;
18200;SDS011;9226;47.858;9.594;2024-03-23T09:48:27;1.00;;;0.50;;
18200;SDS011;9226;47.858;9.594;2024-03-23T09:50:53;1.03;;;0.50;;
18200;SDS011;9226;47.858;9.594;2024-03-23T09:53:18;0.90;;;0.60;;
18200;SDS011;9226;47.858;9.594;2024-03-23T09:55:44;4.17;;;0.60;;
18200;SDS011;9226;47.858;9.594;2024-03-23T09:58:13;1.67;;;0.50;;
18200;SDS011;9226;47.858;9.594;2024-03-23T10:00:40;1.07;;;1.03;;
18200;SDS011;9226;47.858;9.594;2024-03-23T10:03:05;8.03;;;0.90;;
18200;SDS011;9226;47.858;9.594;2024-03-23T10:05:31;1.80;;;0.90;;
18200;SDS011;9226;47.858;9.594;2024-03-23T10:07:59;2.13;;;0.50;;
18200;SDS011;9226;47.858;9.594;2024-03-23T10:10:42;0.43;;;0.43;;
18200;SDS011;9226;47.858;9.594;2024-03-23T10:13:08;11.83;;;0.60;;
18200;SDS011;9226;47.858;9.594;2024-03-23T10:15:34;0.87;;;0.50;;
18200;SDS011;9226;47.858;9.594;2024-03-23T10:18:17;1.67;;;0.70;;
18200;SDS011;9226;47.858;9.594;2024-03-23T10:20:43;1.03;;;0.70;;
18200;SDS011;9226;47.858;9.594;2024-03-23T10:23:15;1.83;;;0.70;;
18200;SDS011;9226;47.858;9.594;2024-03-23T10:25:41;0.77;;;0.63;;
18200;SDS011;9226;47.858;9.594;2024-03-23T10:28:07;2.00;;;0.90;;
18200;SDS011;9226;47.858;9.594;2024-03-23T10:30:32;3.50;;;0.93;;
18200;SDS011;9226;47.858;9.594;2024-03-23T10:33:07;3.13;;;1.10;;
18200;SDS011;9226;47.858;9.594;2024-03-23T10:35:33;7.50;;;0.93;;
18200;SDS011;9226;47.858;9.594;2024-03-23T10:38:00;4.07;;;1.10;;
18200;SDS011;9226;47.858;9.594;2024-03-23T10:40:25;2.20;;;1.10;;
18200;SDS011;9226;47.858;9.594;2024-03-23T10:42:52;1.93;;;1.13;;
18200;SDS011;9226;47.858;9.594;2024-03-23T10:45:20;4.50;;;1.57;;
18200;SDS011;9226;47.858;9.594;2024-03-23T10:47:45;3.27;;;1.43;;
18200;SDS011;9226;47.858;9.594;2024-03-23T10:50:12;3.43;;;1.20;;
18200;SDS011;9226;47.858;9.594;2024-03-23T10:52:37;2.10;;;1.50;;
18200;SDS011;9226;47.858;9.594;2024-03-23T10:55:04;3.63;;;1.30;;
18200;SDS011;9226;47.858;9.594;2024-03-23T10:57:36;2.13;;;1.00;;
18200;SDS011;9226;47.858;9.594;2024-03-23T11:00:05;2.47;;;1.20;;
18200;SDS011;9226;47.858;9.594;2024-03-23T11:02:31;4.73;;;1.33;;
18200;SDS011;9226;47.858;9.594;2024-03-23T11:04:57;5.50;;;1.23;;
18200;SDS011;9226;47.858;9.594;2024-03-23T11:07:32;4.60;;;1.73;;
18200;SDS011;9226;47.858;9.594;2024-03-23T11:09:58;2.90;;;1.10;;
18200;SDS011;9226;47.858;9.594;2024-03-23T11:12:25;4.20;;;1.10;;
18200;SDS011;9226;47.858;9.594;2024-03-23T11:17:29;4.07;;;1.30;;
18200;SDS011;9226;47.858;9.594;2024-03-23T11:20:02;5.23;;;1.30;;
18200;SDS011;9226;47.858;9.594;2024-03-23T11:22:38;3.53;;;1.47;;
18200;SDS011;9226;47.858;9.594;2024-03-23T11:27:46;4.97;;;1.33;;
18200;SDS011;9226;47.858;9.594;2024-03-23T11:30:16;3.93;;;1.50;;
18200;SDS011;9226;47.858;9.594;2024-03-23T11:32:43;3.07;;;1.50;;
18200;SDS011;9226;47.858;9.594;2024-03-23T11:35:27;5.73;;;1.73;;
18200;SDS011;9226;47.858;9.594;2024-03-23T11:40:36;3.03;;;1.43;;
18200;SDS011;9226;47.858;9.594;2024-03-23T11:43:03;8.00;;;1.60;;
18200;SDS011;9226;47.858;9.594;2024-03-23T11:45:34;4.33;;;2.13;;
18200;SDS011;9226;47.858;9.594;2024-03-23T11:48:10;4.70;;;1.57;;
18200;SDS011;9226;47.858;9.594;2024-03-23T11:50:46;3.43;;;1.53;;
18200;SDS011;9226;47.858;9.594;2024-03-23T11:53:25;5.33;;;1.50;;
18200;SDS011;9226;47.858;9.594;2024-03-23T11:56:00;4.23;;;1.50;;
18200;SDS011;9226;47.858;9.594;2024-03-23T11:58:28;3.10;;;1.43;;
18200;SDS011;9226;47.858;9.594;2024-03-23T12:00:59;3.53;;;1.20;;
18200;SDS011;9226;47.858;9.594;2024-03-23T12:03:29;4.10;;;1.40;;
18200;SDS011;9226;47.858;9.594;2024-03-23T12:05:56;3.23;;;1.40;;
18200;SDS011;9226;47.858;9.594;2024-03-23T12:11:05;5.33;;;1.20;;
18200;SDS011;9226;47.858;9.594;2024-03-23T12:13:31;1.90;;;1.17;;
18200;SDS011;9226;47.858;9.594;2024-03-23T12:15:58;7.43;;;1.13;;
18200;SDS011;9226;47.858;9.594;2024-03-23T12:18:35;2.00;;;1.07;;
18200;SDS011;9226;47.858;9.594;2024-03-23T12:21:00;4.17;;;1.30;;
18200;SDS011;9226;47.858;9.594;2024-03-23T12:23:26;2.67;;;1.27;;
18200;SDS011;9226;47.858;9.594;2024-03-23T12:25:51;2.03;;;1.00;;
18200;SDS011;9226;47.858;9.594;2024-03-23T12:28:17;4.37;;;1.13;;
18200;SDS011;9226;47.858;9.594;2024-03-23T12:30:42;6.20;;;1.47;;
18200;SDS011;9226;47.858;9.594;2024-03-23T12:33:07;6.93;;;1.10;;
18200;SDS011;9226;47.858;9.594;2024-03-23T12:35:33;4.20;;;1.47;;
18200;SDS011;9226;47.858;9.594;2024-03-23T12:37:58;6.37;;;1.37;;
18200;SDS011;9226;47.858;9.594;2024-03-23T12:40:24;3.43;;;1.20;;
18200;SDS011;9226;47.858;9.594;2024-03-23T12:42:49;3.43;;;1.17;;
18200;SDS011;9226;47.858;9.594;2024-03-23T12:45:15;3.27;;;1.27;;
18200;SDS011;9226;47.858;9.594;2024-03-23T12:47:40;4.10;;;1.07;;
18200;SDS011;9226;47.858;9.594;2024-03-23T12:50:06;5.50;;;1.10;;
18200;SDS011;9226;47.858;9.594;2024-03-23T12:52:32;3.17;;;1.30;;
18200;SDS011;9226;47.858;9.594;2024-03-23T12:54:58;3.00;;;1.10;;
18200;SDS011;9226;47.858;9.594;2024-03-23T12:57:24;4.23;;;1.07;;
18200;SDS011;9226;47.858;9.594;2024-03-23T12:59:50;4.73;;;1.23;;
18200;SDS011;9226;47.858;9.594;2024-03-23T13:02:17;6.07;;;1.50;;
18200;SDS011;9226;47.858;9.594;2024-03-23T13:04:44;2.03;;;0.97;;
18200;SDS011;9226;47.858;9.594;2024-03-23T13:07:10;2.23;;;0.97;;
18200;SDS011;9226;47.858;9.594;2024-03-23T13:09:36;1.10;;;0.70;;
18200;SDS011;9226;47.858;9.594;2024-03-23T13:12:01;0.80;;;0.70;;
18200;SDS011;9226;47.858;9.594;2024-03-23T13:14:27;2.77;;;0.80;;
18200;SDS011;9226;47.858;9.594;2024-03-23T13:16:52;1.97;;;1.07;;
18200;SDS011;9226;47.858;9.594;2024-03-23T13:19:18;5.90;;;0.80;;
18200;SDS011;9226;47.858;9.594;2024-03-23T13:21:44;0.67;;;0.67;;
18200;SDS011;9226;47.858;9.594;2024-03-23T13:24:09;2.83;;;0.60;;
18200;SDS011;9226;47.858;9.594;2024-03-23T13:26:35;3.53;;;1.00;;
18200;SDS011;9226;47.858;9.594;2024-03-23T13:29:00;2.80;;;1.00;;
18200;SDS011;9226;47.858;9.594;2024-03-23T13:31:26;2.50;;;1.10;;
18200;SDS011;9226;47.858;9.594;2024-03-23T13:33:51;3.13;;;1.20;;
18200;SDS011;9226;47.858;9.594;2024-03-23T13:36:16;3.23;;;0.90;;
18200;SDS011;9226;47.858;9.594;2024-03-23T13:38:42;2.47;;;1.00;;
18200;SDS011;9226;47.858;9.594;2024-03-23T13:41:07;0.97;;;0.73;;
18200;SDS011;9226;47.858;9.594;2024-03-23T13:43:36;1.97;;;1.00;;
18200;SDS011;9226;47.858;9.594;2024-03-23T13:46:01;2.50;;;1.00;;
18200;SDS011;9226;47.858;9.594;2024-03-23T13:48:27;2.77;;;1.10;;
18200;SDS011;9226;47.858;9.594;2024-03-23T13:51:00;2.90;;;0.90;;
18200;SDS011;9226;47.858;9.594;2024-03-23T13:53:29;2.73;;;0.80;;
18200;SDS011;9226;47.858;9.594;2024-03-23T13:55:55;4.07;;;1.20;;
18200;SDS011;9226;47.858;9.594;2024-03-23T13:58:21;1.23;;;0.80;;
18200;SDS011;9226;47.858;9.594;2024-03-23T14:00:48;3.63;;;1.30;;
18200;SDS011;9226;47.858;9.594;2024-03-23T14:03:14;2.13;;;1.00;;
18200;SDS011;9226;47.858;9.594;2024-03-23T14:05:40;2.63;;;0.90;;
18200;SDS011;9226;47.858;9.594;2024-03-23T14:08:06;2.10;;;0.97;;
18200;SDS011;9226;47.858;9.594;2024-03-23T14:10:34;3.93;;;1.10;;
18200;SDS011;9226;47.858;9.594;2024-03-23T14:13:03;2.07;;;1.00;;
18200;SDS011;9226;47.858;9.594;2024-03-23T14:15:29;2.37;;;1.00;;
18200;SDS011;9226;47.858;9.594;2024-03-23T14:17:55;1.90;;;0.80;;
18200;SDS011;9226;47.858;9.594;2024-03-23T14:20:21;5.40;;;1.03;;
18200;SDS011;9226;47.858;9.594;2024-03-23T14:22:47;1.63;;;0.90;;
18200;SDS011;9226;47.858;9.594;2024-03-23T14:25:13;2.90;;;1.03;;
18200;SDS011;9226;47.858;9.594;2024-03-23T14:27:38;2.90;;;1.23;;
18200;SDS011;9226;47.858;9.594;2024-03-23T14:30:04;4.03;;;1.20;;
18200;SDS011;9226;47.858;9.594;2024-03-23T14:32:30;2.63;;;0.80;;
18200;SDS011;9226;47.858;9.594;2024-03-23T14:34:59;2.13;;;1.17;;
18200;SDS011;9226;47.858;9.594;2024-03-23T14:37:28;3.60;;;1.27;;
18200;SDS011;9226;47.858;9.594;2024-03-23T14:39:55;1.17;;;0.80;;
18200;SDS011;9226;47.858;9.594;2024-03-23T14:42:21;4.57;;;1.10;;
18200;SDS011;9226;47.858;9.594;2024-03-23T14:44:47;4.27;;;0.93;;
18200;SDS011;9226;47.858;9.594;2024-03-23T14:47:12;4.70;;;1.10;;
18200;SDS011;9226;47.858;9.594;2024-03-23T14:49:37;4.43;;;1.30;;
18200;SDS011;9226;47.858;9.594;2024-03-23T14:52:03;2.97;;;0.90;;
18200;SDS011;9226;47.858;9.594;2024-03-23T14:54:28;1.20;;;0.80;;
18200;SDS011;9226;47.858;9.594;2024-03-23T14:56:54;3.57;;;0.80;;
18200;SDS011;9226;47.858;9.594;2024-03-23T14:59:19;2.50;;;1.10;;
18200;SDS011;9226;47.858;9.594;2024-03-23T15:01:45;0.87;;;0.70;;
18200;SDS011;9226;47.858;9.594;2024-03-23T15:04:12;2.87;;;0.90;;
18200;SDS011;9226;47.858;9.594;2024-03-23T15:06:37;4.43;;;1.30;;
18200;SDS011;9226;47.858;9.594;2024-03-23T15:09:02;2.00;;;0.90;;
18200;SDS011;9226;47.858;9.594;2024-03-23T15:11:32;6.03;;;1.33;;
18200;SDS011;9226;47.858;9.594;2024-03-23T15:13:58;1.43;;;1.00;;
18200;SDS011;9226;47.858;9.594;2024-03-23T15:16:23;3.00;;;0.70;;
18200;SDS011;9226;47.858;9.594;2024-03-23T15:18:48;1.67;;;0.73;;
18200;SDS011;9226;47.858;9.594;2024-03-23T15:21:13;1.37;;;0.90;;
18200;SDS011;9226;47.858;9.594;2024-03-23T15:23:44;6.07;;;0.97;;
18200;SDS011;9226;47.858;9.594;2024-03-23T15:26:10;7.33;;;1.17;;
18200;SDS011;9226;47.858;9.594;2024-03-23T15:28:35;1.70;;;0.90;;
18200;SDS011;9226;47.858;9.594;2024-03-23T15:31:27;2.77;;;1.00;;
18200;SDS011;9226;47.858;9.594;2024-03-23T15:33:52;5.77;;;0.87;;
18200;SDS011;9226;47.858;9.594;2024-03-23T15:36:18;3.37;;;0.93;;
18200;SDS011;9226;47.858;9.594;2024-03-23T15:38:43;3.20;;;0.80;;
18200;SDS011;9226;47.858;9.594;2024-03-23T15:41:10;3.73;;;0.97;;
18200;SDS011;9226;47.858;9.594;2024-03-23T15:43:35;3.93;;;1.00;;
18200;SDS011;9226;47.858;9.594;2024-03-23T15:46:01;5.83;;;0.80;;
18200;SDS011;9226;47.858;9.594;2024-03-23T15:48:31;2.57;;;0.97;;
18200;SDS011;9226;47.858;9.594;2024-03-23T15:51:00;4.43;;;1.57;;
18200;SDS011;9226;47.858;9.594;2024-03-23T15:53:29;3.20;;;0.80;;
18200;SDS011;9226;47.858;9.594;2024-03-23T15:55:55;1.40;;;0.90;;
18200;SDS011;9226;47.858;9.594;2024-03-23T15:58:22;3.40;;;0.93;;
18200;SDS011;9226;47.858;9.594;2024-03-23T16:01:00;4.33;;;1.00;;
18200;SDS011;9226;47.858;9.594;2024-03-23T16:03:36;4.43;;;0.80;;